Time;durP1;ratioP1;P1;durP2;ratioP2;P2;SDS_P1;SDS_P2;PMS_P1;PMS_P2;Temp;Humidity;BMP_temperature;BMP_pressure;BME280_temperature;BME280_humidity;BME280_pressure;Samples;Min_cycle;Max_cycle;Signal;HPM_P1;HPM_P2
2023/04/17 00:02:24;;;;;;;;;;;;;;;;;;4985447;28;19906;-44
2023/04/17 05:08:56;;;;;;;;;;;;;;;;;;5025511;28;19920;-45
2023/04/17 05:11:22;;;;;;;;;;;;;;;;;;5030672;28;19913;-46
2023/04/17 05:13:49;;;;;;;;;;;;;;;;;;5011109;28;20331;-43
2023/04/17 05:16:15;;;;;;;;;;;;;;;;;;5011300;28;19921;-43
2023/04/17 05:18:42;;;;;;;;;;;;;;;;;;5009509;28;19991;-44
2023/04/17 05:21:08;;;;;;;;;;;;;;;;;;5008807;28;19923;-43
2023/04/17 05:23:34;;;;;;;;;;;;;;;;;;5012101;28;19909;-45
2023/04/17 05:26:00;;;;;;;;;;;;;;;;;;5011654;28;19905;-43
2023/04/17 05:28:28;;;;;;;;;;;;;;;;;;5010968;28;19952;-44
2023/04/17 05:30:54;;;;;;;;;;;;;;;;;;5010667;28;19909;-45
2023/04/17 05:33:20;;;;;;;;;;;;;;;;;;5011868;28;19912;-45
2023/04/17 05:35:47;;;;;;;;;;;;;;;;;;5011538;28;20289;-43
2023/04/17 05:38:13;;;;;;;;;;;;;;;;;;5011181;28;19916;-45
2023/04/17 05:40:39;;;;;;;;;;;;;;;;;;5011876;28;19913;-45
2023/04/17 05:43:05;;;;;;;;;;;;;;;;;;5011532;28;20375;-47
2023/04/17 05:45:31;;;;;;;;;;;;;;;;;;5011408;28;19909;-46
2023/04/17 05:47:57;;;;;;;;;;;;;;;;;;5010973;28;19913;-44
2023/04/17 05:50:24;;;;;;;;;;;;;;;;;;5011001;28;19909;-43
2023/04/17 05:52:50;;;;;;;;;;;;;;;;;;5010995;28;19964;-45
2023/04/17 05:55:18;;;;;;;;;;;;;;;;;;5011372;28;19909;-44
2023/04/17 05:57:44;;;;;;;;;;;;;;;;;;5011164;28;19909;-43
2023/04/17 06:00:11;;;;;;;;;;;;;;;;;;5011032;28;19909;-44
2023/04/17 06:02:38;;;;;;;;;;;;;;;;;;5010977;28;19917;-45
2023/04/17 06:05:05;;;;;;;;;;;;;;;;;;5010872;28;19913;-47
2023/04/17 06:07:31;;;;;;;;;;;;;;;;;;5008547;28;19913;-44
2023/04/17 06:09:57;;;;;;;;;;;;;;;;;;5003544;28;19928;-43
2023/04/17 06:12:23;;;;;;;;;;;;;;;;;;4990093;28;19906;-45
2023/04/17 06:14:49;;;;;;;;;;;;;;;;;;4990045;28;19949;-46
2023/04/17 06:17:15;;;;;;;;;;;;;;;;;;4989463;28;20385;-44
2023/04/17 06:19:41;;;;;;;;;;;;;;;;;;4989653;28;19976;-43
2023/04/17 06:22:07;;;;;;;;;;;;;;;;;;4989462;28;19980;-45
2023/04/17 06:24:32;;;;;;;;;;;;;;;;;;4985520;28;19913;-43
2023/04/17 06:26:58;;;;;;;;;;;;;;;;;;4989466;28;20255;-44
2023/04/17 06:29:24;;;;;;;;;;;;;;;;;;4989212;28;19910;-45
2023/04/17 06:31:50;;;;;;;;;;;;;;;;;;4961465;28;19957;-44
2023/04/17 06:34:16;;;;;;;;;;;;;;;;;;4982824;28;19997;-44
2023/04/17 06:36:42;;;;;;;;;;;;;;;;;;4985579;28;19914;-45
2023/04/17 06:39:08;;;;;;;;;;;;;;;;;;4990473;28;20001;-45
2023/04/17 06:41:34;;;;;;;;;;;;;;;;;;4990115;28;19964;-43
2023/04/17 06:44:00;;;;;;;;;;;;;;;;;;4990289;28;19976;-42
2023/04/17 06:46:26;;;;;;;;;;;;;;;;;;4990506;28;19912;-42
2023/04/17 06:48:56;;;;;;;;;;;;;;;;;;4988737;28;20035;-43
2023/04/17 06:51:24;;;;;;;;;;;;;;;;;;4989439;28;19910;-43
2023/04/17 06:53:51;;;;;;;;;;;;;;;;;;4988801;28;19910;-43
2023/04/17 06:56:18;;;;;;;;;;;;;;;;;;4989280;28;19913;-43
2023/04/17 06:58:44;;;;;;;;;;;;;;;;;;4989615;28;19917;-44
2023/04/17 07:01:10;;;;;;;;;;;;;;;;;;4989007;28;20045;-44
2023/04/17 07:03:36;;;;;;;;;;;;;;;;;;4987474;28;19917;-43
2023/04/17 07:06:03;;;;;;;;;;;;;;;;;;4988213;28;19920;-45
2023/04/17 07:08:29;;;;;;;;;;;;;;;;;;4988554;28;20177;-45
2023/04/17 07:10:55;;;;;;;;;;;;;;;;;;4988898;28;20512;-44
2023/04/17 07:13:21;;;;;;;;;;;;;;;;;;4989008;28;19905;-44
2023/04/17 07:15:46;;;;;;;;;;;;;;;;;;4988570;28;19910;-43
2023/04/17 07:18:12;;;;;;;;;;;;;;;;;;4984342;28;19914;-44
2023/04/17 07:20:38;;;;;;;;;;;;;;;;;;4989040;28;19913;-43
2023/04/17 07:23:04;;;;;;;;;;;;;;;;;;4974386;28;19995;-44
2023/04/17 07:25:30;;;;;;;;;;;;;;;;;;4972883;28;19932;-43
2023/04/17 07:27:56;;;;;;;;;;;;;;;;;;4983415;28;19909;-43
2023/04/17 07:30:22;;;;;;;;;;;;;;;;;;4988350;28;19913;-44
2023/04/17 07:32:48;;;;;;;;;;;;;;;;;;4989533;28;19952;-42
2023/04/17 07:35:14;;;;;;;;;;;;;;;;;;4989841;28;19909;-46
2023/04/17 07:37:40;;;;;;;;;;;;;;;;;;4989631;28;19906;-44
2023/04/17 07:40:08;;;;;;;;;;;;;;;;;;4989951;28;19914;-45
2023/04/17 07:42:34;;;;;;;;;;;;;;;;;;4989949;28;19968;-43
2023/04/17 07:45:00;;;;;;;;;;;;;;;;;;4989714;28;19957;-44
2023/04/17 07:47:26;;;;;;;;;;;;;;;;;;4988759;28;20333;-44
2023/04/17 07:49:52;;;;;;;;;;;;;;;;;;4987473;28;19917;-43
2023/04/17 07:52:18;;;;;;;;;;;;;;;;;;4994187;28;20168;-44
2023/04/17 07:54:44;;;;;;;;;;;;;;;;;;4988321;28;19917;-43
2023/04/17 07:57:10;;;;;;;;;;;;;;;;;;4988098;28;19910;-42
2023/04/17 07:59:36;;;;;;;;;;;;;;;;;;4987783;28;20365;-45
2023/04/17 08:02:02;;;;;;;;;;;;;;;;;;4977549;28;19914;-46
2023/04/17 08:04:28;;;;;;;;;;;;;;;;;;4989410;28;19909;-43
2023/04/17 08:06:54;;;;;;;;;;;;;;;;;;4981727;28;19913;-44
2023/04/17 08:09:21;;;;;;;;;;;;;;;;;;4970207;28;19997;-43
2023/04/17 08:11:47;;;;;;;;;;;;;;;;;;4970207;28;20267;-44
2023/04/17 08:14:14;;;;;;;;;;;;;;;;;;4998768;28;19913;-46
2023/04/17 08:16:40;;;;;;;;;;;;;;;;;;4989271;28;19905;-43
2023/04/17 08:19:06;;;;;;;;;;;;;;;;;;4982761;28;19910;-43
2023/04/17 08:21:32;;;;;;;;;;;;;;;;;;4976731;28;19918;-42
2023/04/17 08:23:58;;;;;;;;;;;;;;;;;;4987327;28;19914;-43
2023/04/17 08:26:24;;;;;;;;;;;;;;;;;;4988007;28;19953;-44
2023/04/17 08:28:52;;;;;;;;;;;;;;;;;;4988518;28;19967;-45
2023/04/17 08:31:18;;;;;;;;;;;;;;;;;;4990855;28;20000;-44
2023/04/17 08:33:44;;;;;;;;;;;;;;;;;;4996882;28;19992;-45
2023/04/17 08:36:10;;;;;;;;;;;;;;;;;;4994824;28;19932;-44
2023/04/17 08:38:36;;;;;;;;;;;;;;;;;;4995526;28;19910;-42
2023/04/17 08:41:02;;;;;;;;;;;;;;;;;;5008824;28;19914;-45
2023/04/17 08:43:28;;;;;;;;;;;;;;;;;;4993599;28;19918;-42
2023/04/17 08:45:54;;;;;;;;;;;;;;;;;;4989036;28;19916;-43
2023/04/17 08:48:20;;;;;;;;;;;;;;;;;;4987029;28;19955;-43
2023/04/17 08:50:47;;;;;;;;;;;;;;;;;;4989087;28;20016;-44
2023/04/17 08:53:13;;;;;;;;;;;;;;;;;;4987736;28;19961;-42
2023/04/17 08:55:39;;;;;;;;;;;;;;;;;;4988544;28;20019;-43
2023/04/17 08:58:05;;;;;;;;;;;;;;;;;;4987927;28;20004;-43
2023/04/17 09:00:31;;;;;;;;;;;;;;;;;;4990135;28;20119;-44
2023/04/17 09:02:57;;;;;;;;;;;;;;;;;;4988039;28;20022;-43
2023/04/17 09:05:24;;;;;;;;;;;;;;;;;;5000850;28;19920;-44
2023/04/17 09:07:50;;;;;;;;;;;;;;;;;;5002391;28;20309;-44
2023/04/17 09:10:16;;;;;;;;;;;;;;;;;;5001239;28;19913;-43
2023/04/17 09:12:43;;;;;;;;;;;;;;;;;;5000685;28;20056;-44
2023/04/17 09:15:09;;;;;;;;;;;;;;;;;;4999873;28;19910;-43
2023/04/17 09:17:36;;;;;;;;;;;;;;;;;;4999166;28;19933;-44
2023/04/17 09:20:08;;;;;;;;;;;;;;;;;;5000368;28;19913;-43
2023/04/17 09:22:34;;;;;;;;;;;;;;;;;;5001116;28;19910;-43
2023/04/17 09:25:00;;;;;;;;;;;;;;;;;;5000819;28;20397;-44
2023/04/17 09:27:26;;;;;;;;;;;;;;;;;;4992277;28;20285;-43
2023/04/17 09:29:52;;;;;;;;;;;;;;;;;;4996497;28;20319;-43
2023/04/17 09:32:18;;;;;;;;;;;;;;;;;;5000785;28;19909;-44
2023/04/17 09:34:44;;;;;;;;;;;;;;;;;;4994285;28;19942;-44
2023/04/17 09:37:10;;;;;;;;;;;;;;;;;;4992073;28;19929;-42
2023/04/17 09:39:36;;;;;;;;;;;;;;;;;;4987752;28;19961;-44
2023/04/17 09:42:02;;;;;;;;;;;;;;;;;;4972360;28;19953;-43
2023/04/17 09:44:28;;;;;;;;;;;;;;;;;;4972313;28;19988;-42
2023/04/17 09:46:54;;;;;;;;;;;;;;;;;;4971923;28;19938;-42
2023/04/17 09:49:20;;;;;;;;;;;;;;;;;;4972281;28;19948;-43
2023/04/17 09:51:48;;;;;;;;;;;;;;;;;;4991300;28;19971;-43
2023/04/17 09:54:14;;;;;;;;;;;;;;;;;;4991829;28;20547;-42
2023/04/17 09:56:40;;;;;;;;;;;;;;;;;;4991545;28;19913;-43
2023/04/17 09:59:06;;;;;;;;;;;;;;;;;;4991378;28;19909;-44
2023/04/17 10:01:32;;;;;;;;;;;;;;;;;;4990112;28;19920;-44
2023/04/17 10:03:58;;;;;;;;;;;;;;;;;;4988108;28;19921;-44
2023/04/17 10:06:25;;;;;;;;;;;;;;;;;;4988689;28;20301;-41
2023/04/17 10:08:51;;;;;;;;;;;;;;;;;;4978542;28;19906;-42
2023/04/17 10:11:17;;;;;;;;;;;;;;;;;;5025745;28;19978;-42
2023/04/17 10:13:43;;;;;;;;;;;;;;;;;;5031635;28;19987;-42
2023/04/17 10:16:09;;;;;;;;;;;;;;;;;;5020092;28;19914;-41
2023/04/17 10:18:35;;;;;;;;;;;;;;;;;;5002035;28;19910;-42
2023/04/17 10:21:02;;;;;;;;;;;;;;;;;;5006865;28;19914;-42
2023/04/17 10:23:28;;;;;;;;;;;;;;;;;;5011027;28;19913;-43
2023/04/17 10:25:55;;;;;;;;;;;;;;;;;;5011643;28;20270;-43
2023/04/17 10:28:21;;;;;;;;;;;;;;;;;;5011557;28;19949;-42
2023/04/17 10:30:47;;;;;;;;;;;;;;;;;;5010689;28;19952;-42
2023/04/17 10:33:19;;;;;;;;;;;;;;;;;;5006997;28;19937;-43
2023/04/17 10:35:45;;;;;;;;;;;;;;;;;;5001538;28;19912;-46
2023/04/17 10:38:11;;;;;;;;;;;;;;;;;;5011328;28;20276;-43
2023/04/17 10:40:37;;;;;;;;;;;;;;;;;;5010654;28;19917;-45
2023/04/17 10:43:03;;;;;;;;;;;;;;;;;;4993168;28;20031;-46
2023/04/17 10:45:29;;;;;;;;;;;;;;;;;;5010988;28;19975;-44
2023/04/17 10:47:55;;;;;;;;;;;;;;;;;;5010973;28;19909;-42
2023/04/17 10:50:21;;;;;;;;;;;;;;;;;;5011564;28;20323;-45
2023/04/17 10:52:47;;;;;;;;;;;;;;;;;;5010992;28;19913;-43
2023/04/17 10:55:14;;;;;;;;;;;;;;;;;;5010689;28;19948;-42
2023/04/17 10:57:40;;;;;;;;;;;;;;;;;;5010895;28;19917;-42
2023/04/17 11:00:06;;;;;;;;;;;;;;;;;;5007557;28;19918;-42
2023/04/17 11:02:32;;;;;;;;;;;;;;;;;;4991426;28;19910;-43
2023/04/17 11:04:58;;;;;;;;;;;;;;;;;;5004270;28;19914;-43
2023/04/17 11:07:24;;;;;;;;;;;;;;;;;;4999108;28;19917;-43
2023/04/17 11:09:51;;;;;;;;;;;;;;;;;;5004089;28;20336;-43
2023/04/17 11:12:18;;;;;;;;;;;;;;;;;;4987577;28;20004;-42
2023/04/17 11:14:44;;;;;;;;;;;;;;;;;;4988722;28;19916;-44
2023/04/17 11:17:10;;;;;;;;;;;;;;;;;;4986663;28;19914;-45
2023/04/17 11:19:36;;;;;;;;;;;;;;;;;;4984465;28;19964;-45
2023/04/17 11:22:02;;;;;;;;;;;;;;;;;;4986510;28;19964;-43
2023/04/17 11:24:29;;;;;;;;;;;;;;;;;;4989790;28;19913;-42
2023/04/17 11:26:55;;;;;;;;;;;;;;;;;;4977593;28;20109;-43
2023/04/17 11:29:21;;;;;;;;;;;;;;;;;;4987825;28;20267;-43
2023/04/17 11:31:47;;;;;;;;;;;;;;;;;;4988104;28;19921;-43
2023/04/17 11:34:13;;;;;;;;;;;;;;;;;;4985265;28;20515;-43
2023/04/17 11:36:39;;;;;;;;;;;;;;;;;;4988820;28;19914;-44
2023/04/17 11:39:04;;;;;;;;;;;;;;;;;;4987795;28;20381;-44
2023/04/17 11:41:30;;;;;;;;;;;;;;;;;;4988097;28;19909;-43
2023/04/17 11:43:56;;;;;;;;;;;;;;;;;;4987970;28;20381;-44
2023/04/17 11:46:22;;;;;;;;;;;;;;;;;;4987876;28;19914;-43
2023/04/17 11:48:49;;;;;;;;;;;;;;;;;;4987141;28;19905;-42
2023/04/17 11:51:16;;;;;;;;;;;;;;;;;;4987770;28;19957;-43
2023/04/17 11:53:42;;;;;;;;;;;;;;;;;;4987546;28;19949;-43
2023/04/17 11:56:08;;;;;;;;;;;;;;;;;;4987349;28;19929;-44
2023/04/17 11:58:34;;;;;;;;;;;;;;;;;;4987820;28;19910;-42
2023/04/17 12:01:01;;;;;;;;;;;;;;;;;;4988277;28;19964;-42
2023/04/17 12:03:28;;;;;;;;;;;;;;;;;;4987742;28;20437;-43
2023/04/17 12:05:55;;;;;;;;;;;;;;;;;;4987853;28;20008;-43
2023/04/17 12:08:21;;;;;;;;;;;;;;;;;;4987374;28;19906;-42
2023/04/17 12:10:47;;;;;;;;;;;;;;;;;;4987102;28;20401;-43
2023/04/17 12:13:13;;;;;;;;;;;;;;;;;;4987662;28;19906;-43
2023/04/17 12:15:39;;;;;;;;;;;;;;;;;;4987858;28;19975;-42
2023/04/17 12:18:05;;;;;;;;;;;;;;;;;;4986890;28;20385;-44
2023/04/17 12:20:31;;;;;;;;;;;;;;;;;;4986931;28;19920;-42
2023/04/17 12:22:57;;;;;;;;;;;;;;;;;;4985740;28;19910;-44
2023/04/17 12:25:23;;;;;;;;;;;;;;;;;;4987467;28;19913;-42
2023/04/17 12:27:49;;;;;;;;;;;;;;;;;;4987535;28;20315;-45
2023/04/17 12:30:15;;;;;;;;;;;;;;;;;;4986002;28;19920;-42
2023/04/17 12:32:44;;;;;;;;;;;;;;;;;;4987347;28;19906;-42
2023/04/17 12:35:10;;;;;;;;;;;;;;;;;;4987546;28;19909;-43
2023/04/17 12:37:36;;;;;;;;;;;;;;;;;;4987261;28;19906;-42
2023/04/17 12:40:02;;;;;;;;;;;;;;;;;;4991371;28;20389;-43
2023/04/17 12:42:28;;;;;;;;;;;;;;;;;;4991918;28;19937;-42
2023/04/17 12:44:54;;;;;;;;;;;;;;;;;;4990972;28;20494;-44
2023/04/17 12:47:20;;;;;;;;;;;;;;;;;;4991054;28;19956;-43
2023/04/17 12:49:46;;;;;;;;;;;;;;;;;;4991163;28;19911;-44
2023/04/17 12:52:12;;;;;;;;;;;;;;;;;;4991006;28;20369;-42
2023/04/17 12:54:39;;;;;;;;;;;;;;;;;;4990964;28;19913;-43
2023/04/17 12:57:05;;;;;;;;;;;;;;;;;;4990606;28;19914;-42
2023/04/17 12:59:31;;;;;;;;;;;;;;;;;;4991504;28;19928;-43
2023/04/17 13:01:58;;;;;;;;;;;;;;;;;;4990556;28;20389;-43
2023/04/17 13:04:24;;;;;;;;;;;;;;;;;;4989691;28;19961;-43
2023/04/17 13:06:50;;;;;;;;;;;;;;;;;;4990869;28;20355;-42
2023/04/17 13:09:16;;;;;;;;;;;;;;;;;;4990164;28;20008;-42
2023/04/17 13:11:42;;;;;;;;;;;;;;;;;;4991748;28;19910;-43
2023/04/17 13:14:09;;;;;;;;;;;;;;;;;;4990721;28;20324;-42
2023/04/17 13:16:35;;;;;;;;;;;;;;;;;;4990697;28;19909;-43
2023/04/17 13:19:02;;;;;;;;;;;;;;;;;;4989640;28;19910;-43
2023/04/17 13:21:28;;;;;;;;;;;;;;;;;;4982419;28;19913;-43
2023/04/17 13:23:55;;;;;;;;;;;;;;;;;;4979380;28;20292;-43
2023/04/17 13:26:20;;;;;;;;;;;;;;;;;;4990124;28;20419;-43
2023/04/17 13:28:47;;;;;;;;;;;;;;;;;;4985519;28;19910;-43
2023/04/17 13:31:13;;;;;;;;;;;;;;;;;;4978697;28;19918;-43
2023/04/17 13:33:40;;;;;;;;;;;;;;;;;;4989704;28;19910;-43
2023/04/17 13:36:06;;;;;;;;;;;;;;;;;;4987808;28;19917;-43
2023/04/17 13:38:32;;;;;;;;;;;;;;;;;;4988893;28;19909;-43
2023/04/17 13:40:58;;;;;;;;;;;;;;;;;;4971019;28;19920;-45
2023/04/17 13:43:25;;;;;;;;;;;;;;;;;;4988530;28;19909;-42
2023/04/17 13:45:51;;;;;;;;;;;;;;;;;;4989042;28;20365;-45
2023/04/17 13:48:17;;;;;;;;;;;;;;;;;;4984027;28;19921;-42
2023/04/17 13:50:44;;;;;;;;;;;;;;;;;;4969652;28;20008;-42
2023/04/17 13:53:11;;;;;;;;;;;;;;;;;;4983529;28;19909;-44
2023/04/17 13:55:36;;;;;;;;;;;;;;;;;;4988555;28;19914;-42
2023/04/17 13:58:02;;;;;;;;;;;;;;;;;;4988779;28;19906;-44
2023/04/17 14:00:28;;;;;;;;;;;;;;;;;;4988887;28;19909;-43
2023/04/17 14:02:54;;;;;;;;;;;;;;;;;;4988550;28;19916;-43
2023/04/17 14:05:20;;;;;;;;;;;;;;;;;;4988295;28;20371;-43
2023/04/17 14:07:46;;;;;;;;;;;;;;;;;;4988694;28;19916;-43
2023/04/17 14:10:12;;;;;;;;;;;;;;;;;;4983590;28;19913;-44
2023/04/17 14:12:38;;;;;;;;;;;;;;;;;;5004115;28;19913;-43
2023/04/17 14:15:04;;;;;;;;;;;;;;;;;;5008955;28;19910;-43
2023/04/17 14:17:31;;;;;;;;;;;;;;;;;;5006299;28;20172;-43
2023/04/17 14:19:58;;;;;;;;;;;;;;;;;;5007503;28;19921;-42
2023/04/17 14:22:24;;;;;;;;;;;;;;;;;;4997230;28;20352;-41
2023/04/17 14:24:50;;;;;;;;;;;;;;;;;;4988199;28;20020;-43
2023/04/17 14:27:16;;;;;;;;;;;;;;;;;;4987184;28;19909;-43
2023/04/17 14:29:42;;;;;;;;;;;;;;;;;;4994976;28;20365;-44
2023/04/17 14:32:08;;;;;;;;;;;;;;;;;;5005804;28;19975;-43
2023/04/17 14:34:35;;;;;;;;;;;;;;;;;;5007719;28;19909;-43
2023/04/17 14:37:01;;;;;;;;;;;;;;;;;;5007472;28;20419;-42
2023/04/17 14:39:27;;;;;;;;;;;;;;;;;;5006445;28;19960;-42
2023/04/17 14:41:53;;;;;;;;;;;;;;;;;;5007684;28;19923;-43
2023/04/17 14:44:19;;;;;;;;;;;;;;;;;;5010919;28;19909;-44
2023/04/17 14:46:46;;;;;;;;;;;;;;;;;;5007485;28;19909;-43
2023/04/17 14:49:12;;;;;;;;;;;;;;;;;;5007682;28;19928;-43
2023/04/17 14:51:38;;;;;;;;;;;;;;;;;;5006936;28;19914;-44
2023/04/17 14:54:05;;;;;;;;;;;;;;;;;;5006739;28;20036;-43
2023/04/17 14:56:32;;;;;;;;;;;;;;;;;;5007462;28;20359;-43
2023/04/17 14:58:58;;;;;;;;;;;;;;;;;;5007693;28;19909;-43
2023/04/17 15:01:24;;;;;;;;;;;;;;;;;;5005146;28;20378;-44
2023/04/17 15:03:50;;;;;;;;;;;;;;;;;;5008690;28;19910;-46
2023/04/17 15:06:15;;;;;;;;;;;;;;;;;;5007375;28;20577;-42
2023/04/17 15:08:41;;;;;;;;;;;;;;;;;;5009187;28;19913;-42
2023/04/17 15:11:07;;;;;;;;;;;;;;;;;;4993444;28;19917;-43
2023/04/17 15:13:34;;;;;;;;;;;;;;;;;;4988239;28;19913;-43
2023/04/17 15:16:00;;;;;;;;;;;;;;;;;;4987970;28;19948;-41
2023/04/17 15:18:26;;;;;;;;;;;;;;;;;;4988403;28;20023;-44
2023/04/17 15:20:52;;;;;;;;;;;;;;;;;;4987996;28;19933;-42
2023/04/17 15:23:18;;;;;;;;;;;;;;;;;;4983975;28;20004;-44
2023/04/17 15:25:44;;;;;;;;;;;;;;;;;;4988226;28;19909;-43
2023/04/17 15:28:11;;;;;;;;;;;;;;;;;;4987797;28;19914;-42
2023/04/17 15:30:37;;;;;;;;;;;;;;;;;;4988078;28;19906;-43
2023/04/17 15:33:03;;;;;;;;;;;;;;;;;;4988126;28;19952;-43
2023/04/17 15:35:29;;;;;;;;;;;;;;;;;;4988696;28;19913;-43
2023/04/17 15:37:54;;;;;;;;;;;;;;;;;;4987849;28;19909;-45
2023/04/17 15:40:20;;;;;;;;;;;;;;;;;;4988018;28;19914;-42
2023/04/17 15:42:46;;;;;;;;;;;;;;;;;;4987654;28;20012;-44
2023/04/17 15:45:12;;;;;;;;;;;;;;;;;;4986663;28;19913;-42
2023/04/17 15:47:38;;;;;;;;;;;;;;;;;;4987478;28;19916;-43
2023/04/17 15:50:04;;;;;;;;;;;;;;;;;;4989126;28;20000;-42
2023/04/17 15:52:30;;;;;;;;;;;;;;;;;;4988741;28;19910;-41
2023/04/17 15:54:56;;;;;;;;;;;;;;;;;;4989568;28;19909;-42
2023/04/17 15:57:22;;;;;;;;;;;;;;;;;;4988876;28;19906;-42
2023/04/17 15:59:48;;;;;;;;;;;;;;;;;;4988666;28;19941;-45
2023/04/17 16:02:14;;;;;;;;;;;;;;;;;;4988797;28;19932;-43
2023/04/17 16:04:42;;;;;;;;;;;;;;;;;;4988877;28;19948;-43
2023/04/17 16:07:09;;;;;;;;;;;;;;;;;;4987950;28;19910;-43
2023/04/17 16:09:35;;;;;;;;;;;;;;;;;;4988371;28;19913;-45
2023/04/17 16:12:01;;;;;;;;;;;;;;;;;;4989242;28;19955;-42
2023/04/17 16:14:27;;;;;;;;;;;;;;;;;;4993542;28;19929;-43
2023/04/17 16:16:53;;;;;;;;;;;;;;;;;;4992923;28;20420;-44
2023/04/17 16:19:19;;;;;;;;;;;;;;;;;;4991524;28;19906;-43
2023/04/17 16:21:45;;;;;;;;;;;;;;;;;;4992084;28;19914;-42
2023/04/17 16:24:11;;;;;;;;;;;;;;;;;;4988544;28;19913;-43
2023/04/17 16:26:37;;;;;;;;;;;;;;;;;;4992687;28;19917;-43
2023/04/17 16:29:03;;;;;;;;;;;;;;;;;;4992578;28;19906;-42
2023/04/17 16:31:29;;;;;;;;;;;;;;;;;;4993252;28;19906;-43
2023/04/17 16:33:54;;;;;;;;;;;;;;;;;;4991670;28;19996;-42
2023/04/17 16:36:20;;;;;;;;;;;;;;;;;;4991311;28;19948;-44
2023/04/17 16:38:47;;;;;;;;;;;;;;;;;;4990900;28;19945;-44
2023/04/17 16:41:13;;;;;;;;;;;;;;;;;;4990749;28;20660;-43
2023/04/17 16:43:41;;;;;;;;;;;;;;;;;;4991042;28;20000;-43
2023/04/17 16:46:07;;;;;;;;;;;;;;;;;;4990860;28;19960;-44
2023/04/17 16:48:33;;;;;;;;;;;;;;;;;;4988183;28;19914;-43
2023/04/17 16:50:59;;;;;;;;;;;;;;;;;;4991737;28;20364;-44
2023/04/17 16:53:24;;;;;;;;;;;;;;;;;;4991005;28;19956;-44
2023/04/17 16:55:50;;;;;;;;;;;;;;;;;;4990701;28;20400;-42
2023/04/17 16:58:16;;;;;;;;;;;;;;;;;;4991108;28;19909;-43
2023/04/17 17:00:42;;;;;;;;;;;;;;;;;;4989812;28;19937;-43
2023/04/17 17:03:08;;;;;;;;;;;;;;;;;;4990300;28;19945;-43
2023/04/17 17:05:34;;;;;;;;;;;;;;;;;;4992329;28;19983;-43
2023/04/17 17:08:00;;;;;;;;;;;;;;;;;;4989888;28;19921;-43
2023/04/17 17:10:26;;;;;;;;;;;;;;;;;;4984648;28;19914;-46
2023/04/17 17:12:53;;;;;;;;;;;;;;;;;;5020526;28;19913;-45
2023/04/17 17:15:19;;;;;;;;;;;;;;;;;;5007811;28;20307;-48
2023/04/17 17:17:45;;;;;;;;;;;;;;;;;;5007154;28;19913;-44
2023/04/17 17:20:10;;;;;;;;;;;;;;;;;;5007660;28;20373;-46
2023/04/17 17:22:37;;;;;;;;;;;;;;;;;;5006578;28;19920;-45
2023/04/17 17:25:03;;;;;;;;;;;;;;;;;;5007220;28;20007;-44
2023/04/17 17:27:30;;;;;;;;;;;;;;;;;;5008377;28;19963;-46
2023/04/17 17:29:57;;;;;;;;;;;;;;;;;;5007940;28;19909;-45
2023/04/17 17:32:24;;;;;;;;;;;;;;;;;;5005131;28;19909;-44
2023/04/17 17:34:50;;;;;;;;;;;;;;;;;;5006880;28;20380;-47
2023/04/17 17:37:16;;;;;;;;;;;;;;;;;;5007351;28;19916;-46
2023/04/17 17:39:42;;;;;;;;;;;;;;;;;;5004845;28;19920;-44
2023/04/17 17:42:08;;;;;;;;;;;;;;;;;;5007221;28;20008;-44
2023/04/17 17:44:34;;;;;;;;;;;;;;;;;;5007176;28;19919;-43
2023/04/17 17:47:00;;;;;;;;;;;;;;;;;;5006887;28;19909;-46
2023/04/17 17:49:26;;;;;;;;;;;;;;;;;;5007836;28;19917;-46
2023/04/17 17:51:52;;;;;;;;;;;;;;;;;;5006398;28;19913;-45
2023/04/17 17:54:18;;;;;;;;;;;;;;;;;;5006909;28;19913;-45
2023/04/17 17:56:44;;;;;;;;;;;;;;;;;;5006271;28;19924;-46
2023/04/17 17:59:10;;;;;;;;;;;;;;;;;;5005267;28;20575;-45
2023/04/17 18:01:36;;;;;;;;;;;;;;;;;;5005995;28;19913;-45
2023/04/17 18:04:02;;;;;;;;;;;;;;;;;;5005384;28;19913;-44
2023/04/17 18:06:28;;;;;;;;;;;;;;;;;;5006918;28;19971;-44
2023/04/17 18:08:53;;;;;;;;;;;;;;;;;;5009064;28;19917;-43
2023/04/17 18:11:20;;;;;;;;;;;;;;;;;;4988932;28;20445;-43
2023/04/17 18:13:46;;;;;;;;;;;;;;;;;;4985849;28;19937;-45
2023/04/17 18:16:11;;;;;;;;;;;;;;;;;;4986495;28;20327;-43
2023/04/17 18:18:37;;;;;;;;;;;;;;;;;;4985633;28;19918;-45
2023/04/17 18:21:04;;;;;;;;;;;;;;;;;;4985557;28;19917;-43
2023/04/17 18:23:30;;;;;;;;;;;;;;;;;;4986282;28;19909;-44
2023/04/17 18:25:57;;;;;;;;;;;;;;;;;;4986988;28;20385;-43
2023/04/17 18:28:24;;;;;;;;;;;;;;;;;;4985993;28;19914;-44
2023/04/17 18:30:50;;;;;;;;;;;;;;;;;;4985516;28;19921;-45
2023/04/17 18:33:16;;;;;;;;;;;;;;;;;;4984346;28;19910;-46
2023/04/17 18:35:42;;;;;;;;;;;;;;;;;;4979520;28;19914;-44
2023/04/17 18:38:09;;;;;;;;;;;;;;;;;;4967794;28;20004;-44
2023/04/17 18:40:37;;;;;;;;;;;;;;;;;;4984359;28;20298;-46
2023/04/17 18:43:03;;;;;;;;;;;;;;;;;;4986483;28;20296;-45
2023/04/17 18:45:29;;;;;;;;;;;;;;;;;;4986174;28;19910;-43
2023/04/17 18:47:55;;;;;;;;;;;;;;;;;;4986210;28;20382;-43
2023/04/17 18:50:21;;;;;;;;;;;;;;;;;;4986295;28;19963;-46
2023/04/17 18:52:47;;;;;;;;;;;;;;;;;;4968599;28;19996;-46
2023/04/17 18:55:16;;;;;;;;;;;;;;;;;;4986150;28;19960;-44
2023/04/17 18:57:42;;;;;;;;;;;;;;;;;;4991612;28;19910;-45
2023/04/17 19:00:08;;;;;;;;;;;;;;;;;;4985160;28;19925;-46
2023/04/17 19:02:35;;;;;;;;;;;;;;;;;;4968422;28;19913;-43
2023/04/17 19:05:01;;;;;;;;;;;;;;;;;;4985953;28;20332;-44
2023/04/17 19:07:28;;;;;;;;;;;;;;;;;;4985911;28;20073;-45
2023/04/17 19:09:54;;;;;;;;;;;;;;;;;;4986000;28;20363;-45
2023/04/17 19:12:21;;;;;;;;;;;;;;;;;;4987483;28;20307;-44
2023/04/17 19:14:46;;;;;;;;;;;;;;;;;;4971352;28;19910;-44
2023/04/17 19:17:12;;;;;;;;;;;;;;;;;;4985329;28;19921;-47
2023/04/17 19:19:38;;;;;;;;;;;;;;;;;;4985251;28;19952;-45
2023/04/17 19:22:04;;;;;;;;;;;;;;;;;;4985471;28;19917;-44
2023/04/17 19:24:30;;;;;;;;;;;;;;;;;;4986564;28;19909;-44
2023/04/17 19:26:57;;;;;;;;;;;;;;;;;;4985579;28;19937;-45
2023/04/17 19:29:23;;;;;;;;;;;;;;;;;;4985316;28;20005;-46
2023/04/17 19:31:50;;;;;;;;;;;;;;;;;;4984819;28;20197;-46
2023/04/17 19:34:16;;;;;;;;;;;;;;;;;;4985442;28;19913;-44
2023/04/17 19:36:42;;;;;;;;;;;;;;;;;;4984982;28;19937;-46
2023/04/17 19:39:08;;;;;;;;;;;;;;;;;;4985027;28;20309;-43
2023/04/17 19:41:34;;;;;;;;;;;;;;;;;;4985403;28;19914;-43
2023/04/17 19:44:00;;;;;;;;;;;;;;;;;;4985749;28;20432;-43
2023/04/17 19:46:27;;;;;;;;;;;;;;;;;;4985874;28;20021;-43
2023/04/17 19:48:54;;;;;;;;;;;;;;;;;;4965650;28;20352;-45
2023/04/17 19:51:20;;;;;;;;;;;;;;;;;;4966722;28;20436;-47
2023/04/17 19:53:47;;;;;;;;;;;;;;;;;;4985550;28;19906;-44
2023/04/17 19:56:13;;;;;;;;;;;;;;;;;;4985692;28;19916;-44
2023/04/17 19:58:40;;;;;;;;;;;;;;;;;;4985161;28;19914;-44
2023/04/17 20:01:06;;;;;;;;;;;;;;;;;;4985308;28;19913;-44
2023/04/17 20:03:32;;;;;;;;;;;;;;;;;;4985327;28;20009;-45
2023/04/17 20:05:58;;;;;;;;;;;;;;;;;;4984602;28;19920;-44
2023/04/17 20:08:24;;;;;;;;;;;;;;;;;;4985853;28;19961;-47
2023/04/17 20:10:50;;;;;;;;;;;;;;;;;;4990658;28;19918;-44
2023/04/17 20:13:16;;;;;;;;;;;;;;;;;;5004926;28;19952;-44
2023/04/17 20:15:42;;;;;;;;;;;;;;;;;;5004768;28;19909;-43
2023/04/17 20:18:08;;;;;;;;;;;;;;;;;;5004652;28;19916;-47
2023/04/17 20:20:34;;;;;;;;;;;;;;;;;;5004238;28;19949;-45
2023/04/17 20:23:00;;;;;;;;;;;;;;;;;;5005435;28;20123;-43
2023/04/17 20:25:26;;;;;;;;;;;;;;;;;;5005460;28;19912;-45
2023/04/17 20:27:51;;;;;;;;;;;;;;;;;;5004588;28;20345;-45
2023/04/17 20:30:19;;;;;;;;;;;;;;;;;;5004608;28;19917;-43
2023/04/17 20:32:46;;;;;;;;;;;;;;;;;;5003261;28;19912;-44
2023/04/17 20:35:12;;;;;;;;;;;;;;;;;;5004643;28;19906;-45
2023/04/17 20:37:39;;;;;;;;;;;;;;;;;;5004248;28;19916;-44
2023/04/17 20:40:09;;;;;;;;;;;;;;;;;;5003519;28;19962;-45
2023/04/17 20:42:35;;;;;;;;;;;;;;;;;;5004510;28;19957;-46
2023/04/17 20:45:01;;;;;;;;;;;;;;;;;;5003133;28;19952;-46
2023/04/17 20:47:26;;;;;;;;;;;;;;;;;;4998985;28;20383;-44
2023/04/17 20:49:53;;;;;;;;;;;;;;;;;;4984795;28;19928;-45
2023/04/17 20:52:19;;;;;;;;;;;;;;;;;;5002221;28;19968;-45
2023/04/17 20:54:45;;;;;;;;;;;;;;;;;;5003096;28;19944;-43
2023/04/17 20:57:11;;;;;;;;;;;;;;;;;;5004524;28;20416;-45
2023/04/17 20:59:37;;;;;;;;;;;;;;;;;;5005756;28;20328;-48
2023/04/17 21:02:04;;;;;;;;;;;;;;;;;;5006727;28;20024;-46
2023/04/17 21:04:30;;;;;;;;;;;;;;;;;;5008914;28;19909;-43
2023/04/17 21:06:56;;;;;;;;;;;;;;;;;;5008344;28;19910;-44
2023/04/17 21:09:23;;;;;;;;;;;;;;;;;;5006734;28;19905;-44
2023/04/17 21:11:49;;;;;;;;;;;;;;;;;;4988356;28;19938;-47
2023/04/17 21:14:15;;;;;;;;;;;;;;;;;;4970934;28;19913;-45
2023/04/17 21:16:44;;;;;;;;;;;;;;;;;;4988569;28;19913;-46
2023/04/17 21:19:10;;;;;;;;;;;;;;;;;;4987831;28;19905;-46
2023/04/17 21:21:35;;;;;;;;;;;;;;;;;;4987985;28;19923;-44
2023/04/17 21:24:02;;;;;;;;;;;;;;;;;;4988230;28;20370;-45
2023/04/17 21:26:29;;;;;;;;;;;;;;;;;;4988898;28;19909;-44
2023/04/17 21:28:56;;;;;;;;;;;;;;;;;;4988584;28;20004;-47
2023/04/17 21:31:22;;;;;;;;;;;;;;;;;;4988177;28;20138;-45
2023/04/17 21:33:49;;;;;;;;;;;;;;;;;;4987853;28;20258;-45
2023/04/17 21:36:14;;;;;;;;;;;;;;;;;;4987977;28;19924;-44
2023/04/17 21:38:40;;;;;;;;;;;;;;;;;;4987620;28;19906;-45
2023/04/17 21:41:06;;;;;;;;;;;;;;;;;;4970395;28;19909;-43
2023/04/17 21:43:32;;;;;;;;;;;;;;;;;;4988421;28;19992;-45